sensor_id;sensor_type;location;lat;lon;timestamp;P1;durP1;ratioP1;P2;durP2;ratioP2
8640;SDS011;4358;42.100;25.222;2023-02-28T00:01:19;5.13;;;4.10;;
8640;SDS011;4358;42.100;25.222;2023-02-28T00:03:46;5.43;;;3.67;;
8640;SDS011;4358;42.100;25.222;2023-02-28T00:06:13;8.97;;;4.80;;
8640;SDS011;4358;42.100;25.222;2023-02-28T00:08:39;6.20;;;4.37;;
8640;SDS011;4358;42.100;25.222;2023-02-28T00:11:08;5.97;;;4.37;;
8640;SDS011;4358;42.100;25.222;2023-02-28T00:13:37;11.27;;;5.60;;
8640;SDS011;4358;42.100;25.222;2023-02-28T00:16:06;10.17;;;6.40;;
8640;SDS011;4358;42.100;25.222;2023-02-28T00:18:37;6.90;;;5.23;;
8640;SDS011;4358;42.100;25.222;2023-02-28T00:21:04;8.90;;;5.10;;
8640;SDS011;4358;42.100;25.222;2023-02-28T00:23:32;10.87;;;5.57;;
8640;SDS011;4358;42.100;25.222;2023-02-28T00:25:59;6.33;;;4.97;;
8640;SDS011;4358;42.100;25.222;2023-02-28T00:28:26;8.00;;;5.77;;
8640;SDS011;4358;42.100;25.222;2023-02-28T00:30:53;7.00;;;5.63;;
8640;SDS011;4358;42.100;25.222;2023-02-28T00:33:20;9.47;;;6.03;;
8640;SDS011;4358;42.100;25.222;2023-02-28T00:35:48;7.27;;;6.10;;
8640;SDS011;4358;42.100;25.222;2023-02-28T00:38:15;7.53;;;4.97;;
8640;SDS011;4358;42.100;25.222;2023-02-28T00:40:42;9.27;;;4.90;;
8640;SDS011;4358;42.100;25.222;2023-02-28T00:43:09;7.00;;;5.23;;
8640;SDS011;4358;42.100;25.222;2023-02-28T00:45:36;11.10;;;4.67;;
8640;SDS011;4358;42.100;25.222;2023-02-28T00:48:03;12.93;;;5.30;;
8640;SDS011;4358;42.100;25.222;2023-02-28T00:50:30;7.77;;;5.23;;
8640;SDS011;4358;42.100;25.222;2023-02-28T00:52:58;7.70;;;5.00;;
8640;SDS011;4358;42.100;25.222;2023-02-28T00:55:25;8.80;;;5.33;;
8640;SDS011;4358;42.100;25.222;2023-02-28T00:57:52;7.33;;;5.90;;
8640;SDS011;4358;42.100;25.222;2023-02-28T01:00:19;9.47;;;5.60;;
8640;SDS011;4358;42.100;25.222;2023-02-28T01:02:46;8.87;;;5.13;;
8640;SDS011;4358;42.100;25.222;2023-02-28T01:05:13;8.97;;;5.83;;
8640;SDS011;4358;42.100;25.222;2023-02-28T01:07:40;9.83;;;6.50;;
8640;SDS011;4358;42.100;25.222;2023-02-28T01:10:09;7.20;;;5.33;;
8640;SDS011;4358;42.100;25.222;2023-02-28T01:12:37;7.70;;;5.50;;
8640;SDS011;4358;42.100;25.222;2023-02-28T01:15:04;8.83;;;5.57;;
8640;SDS011;4358;42.100;25.222;2023-02-28T01:17:32;8.90;;;5.17;;
8640;SDS011;4358;42.100;25.222;2023-02-28T01:19:58;9.27;;;5.37;;
8640;SDS011;4358;42.100;25.222;2023-02-28T01:22:25;9.53;;;5.57;;
8640;SDS011;4358;42.100;25.222;2023-02-28T01:24:52;8.23;;;5.43;;
8640;SDS011;4358;42.100;25.222;2023-02-28T01:27:20;8.67;;;5.73;;
8640;SDS011;4358;42.100;25.222;2023-02-28T01:29:47;8.27;;;5.73;;
8640;SDS011;4358;42.100;25.222;2023-02-28T01:32:14;8.10;;;5.17;;
8640;SDS011;4358;42.100;25.222;2023-02-28T01:34:41;9.83;;;5.63;;
8640;SDS011;4358;42.100;25.222;2023-02-28T01:37:08;8.70;;;6.00;;
8640;SDS011;4358;42.100;25.222;2023-02-28T01:39:34;6.90;;;4.63;;
8640;SDS011;4358;42.100;25.222;2023-02-28T01:42:01;9.50;;;6.10;;
8640;SDS011;4358;42.100;25.222;2023-02-28T01:47:36;8.37;;;5.43;;
8640;SDS011;4358;42.100;25.222;2023-02-28T01:50:07;9.53;;;6.30;;
8640;SDS011;4358;42.100;25.222;2023-02-28T01:52:40;8.50;;;5.93;;
8640;SDS011;4358;42.100;25.222;2023-02-28T01:55:09;8.73;;;5.83;;
8640;SDS011;4358;42.100;25.222;2023-02-28T01:57:39;9.30;;;6.27;;
8640;SDS011;4358;42.100;25.222;2023-02-28T02:00:09;10.63;;;6.53;;
8640;SDS011;4358;42.100;25.222;2023-02-28T02:02:41;9.37;;;6.37;;
8640;SDS011;4358;42.100;25.222;2023-02-28T02:05:10;13.70;;;7.23;;
8640;SDS011;4358;42.100;25.222;2023-02-28T02:07:40;8.70;;;6.03;;
8640;SDS011;4358;42.100;25.222;2023-02-28T02:10:11;9.80;;;6.20;;
8640;SDS011;4358;42.100;25.222;2023-02-28T02:12:47;10.07;;;5.90;;
8640;SDS011;4358;42.100;25.222;2023-02-28T02:15:38;12.63;;;7.10;;
8640;SDS011;4358;42.100;25.222;2023-02-28T02:18:12;11.03;;;6.27;;
8640;SDS011;4358;42.100;25.222;2023-02-28T02:27:03;8.80;;;6.07;;
8640;SDS011;4358;42.100;25.222;2023-02-28T02:29:55;7.00;;;5.00;;
8640;SDS011;4358;42.100;25.222;2023-02-28T02:35:51;15.80;;;5.60;;
8640;SDS011;4358;42.100;25.222;2023-02-28T02:38:27;10.60;;;6.17;;
8640;SDS011;4358;42.100;25.222;2023-02-28T02:41:04;8.10;;;5.80;;
8640;SDS011;4358;42.100;25.222;2023-02-28T02:43:41;9.57;;;5.83;;
8640;SDS011;4358;42.100;25.222;2023-02-28T02:46:13;7.60;;;5.97;;
8640;SDS011;4358;42.100;25.222;2023-02-28T02:48:46;10.07;;;5.83;;
8640;SDS011;4358;42.100;25.222;2023-02-28T02:51:16;8.33;;;5.37;;
8640;SDS011;4358;42.100;25.222;2023-02-28T02:53:47;7.97;;;5.43;;
8640;SDS011;4358;42.100;25.222;2023-02-28T02:56:19;9.37;;;5.97;;
8640;SDS011;4358;42.100;25.222;2023-02-28T02:58:49;7.83;;;4.83;;
8640;SDS011;4358;42.100;25.222;2023-02-28T03:01:19;8.20;;;5.37;;
8640;SDS011;4358;42.100;25.222;2023-02-28T03:03:52;7.47;;;5.10;;
8640;SDS011;4358;42.100;25.222;2023-02-28T03:06:23;8.43;;;5.67;;
8640;SDS011;4358;42.100;25.222;2023-02-28T03:08:50;6.73;;;5.17;;
8640;SDS011;4358;42.100;25.222;2023-02-28T03:11:17;8.77;;;5.40;;
8640;SDS011;4358;42.100;25.222;2023-02-28T03:13:56;7.73;;;5.23;;
8640;SDS011;4358;42.100;25.222;2023-02-28T03:16:41;7.23;;;4.60;;
8640;SDS011;4358;42.100;25.222;2023-02-28T03:19:24;8.17;;;4.97;;
8640;SDS011;4358;42.100;25.222;2023-02-28T03:22:08;7.80;;;4.97;;
8640;SDS011;4358;42.100;25.222;2023-02-28T03:24:49;7.67;;;4.83;;
8640;SDS011;4358;42.100;25.222;2023-02-28T03:27:23;6.87;;;4.77;;
8640;SDS011;4358;42.100;25.222;2023-02-28T03:29:56;9.37;;;5.63;;
8640;SDS011;4358;42.100;25.222;2023-02-28T03:32:29;6.93;;;4.97;;
8640;SDS011;4358;42.100;25.222;2023-02-28T03:35:06;7.63;;;5.43;;
8640;SDS011;4358;42.100;25.222;2023-02-28T03:37:40;7.80;;;5.20;;
8640;SDS011;4358;42.100;25.222;2023-02-28T03:40:10;12.40;;;6.40;;
8640;SDS011;4358;42.100;25.222;2023-02-28T03:42:41;11.90;;;7.50;;
8640;SDS011;4358;42.100;25.222;2023-02-28T03:45:13;7.87;;;6.27;;
8640;SDS011;4358;42.100;25.222;2023-02-28T03:47:44;8.80;;;5.20;;
8640;SDS011;4358;42.100;25.222;2023-02-28T03:50:16;7.40;;;4.90;;
8640;SDS011;4358;42.100;25.222;2023-02-28T03:52:48;7.33;;;4.77;;
8640;SDS011;4358;42.100;25.222;2023-02-28T03:55:17;9.50;;;5.73;;
8640;SDS011;4358;42.100;25.222;2023-02-28T03:57:48;7.07;;;4.27;;
8640;SDS011;4358;42.100;25.222;2023-02-28T04:00:25;7.33;;;4.70;;
8640;SDS011;4358;42.100;25.222;2023-02-28T04:02:55;6.20;;;4.50;;
8640;SDS011;4358;42.100;25.222;2023-02-28T04:05:22;7.43;;;4.67;;
8640;SDS011;4358;42.100;25.222;2023-02-28T04:07:51;11.47;;;5.80;;
8640;SDS011;4358;42.100;25.222;2023-02-28T04:10:19;7.97;;;5.50;;
8640;SDS011;4358;42.100;25.222;2023-02-28T04:12:46;9.03;;;5.60;;
8640;SDS011;4358;42.100;25.222;2023-02-28T04:15:13;7.63;;;5.03;;
8640;SDS011;4358;42.100;25.222;2023-02-28T04:17:40;9.50;;;5.80;;
8640;SDS011;4358;42.100;25.222;2023-02-28T04:20:07;7.17;;;5.60;;
8640;SDS011;4358;42.100;25.222;2023-02-28T04:22:35;9.20;;;5.73;;
8640;SDS011;4358;42.100;25.222;2023-02-28T04:25:05;9.27;;;6.20;;
8640;SDS011;4358;42.100;25.222;2023-02-28T04:27:32;8.97;;;5.57;;
8640;SDS011;4358;42.100;25.222;2023-02-28T04:30:00;9.33;;;6.20;;
8640;SDS011;4358;42.100;25.222;2023-02-28T04:32:26;12.33;;;6.23;;
8640;SDS011;4358;42.100;25.222;2023-02-28T04:34:53;10.73;;;6.20;;
8640;SDS011;4358;42.100;25.222;2023-02-28T04:37:20;9.17;;;6.10;;
8640;SDS011;4358;42.100;25.222;2023-02-28T04:39:52;8.20;;;6.10;;
8640;SDS011;4358;42.100;25.222;2023-02-28T04:42:21;7.67;;;5.07;;
8640;SDS011;4358;42.100;25.222;2023-02-28T04:44:47;8.37;;;5.83;;
8640;SDS011;4358;42.100;25.222;2023-02-28T04:47:14;8.23;;;5.53;;
8640;SDS011;4358;42.100;25.222;2023-02-28T04:49:41;10.27;;;6.17;;
8640;SDS011;4358;42.100;25.222;2023-02-28T04:52:08;8.57;;;5.73;;
8640;SDS011;4358;42.100;25.222;2023-02-28T04:54:35;7.23;;;5.33;;
8640;SDS011;4358;42.100;25.222;2023-02-28T04:57:04;9.20;;;6.20;;
8640;SDS011;4358;42.100;25.222;2023-02-28T04:59:32;12.00;;;5.90;;
8640;SDS011;4358;42.100;25.222;2023-02-28T05:01:59;18.37;;;13.67;;
8640;SDS011;4358;42.100;25.222;2023-02-28T05:04:31;16.87;;;10.73;;
8640;SDS011;4358;42.100;25.222;2023-02-28T05:06:59;18.37;;;11.37;;
8640;SDS011;4358;42.100;25.222;2023-02-28T05:09:26;13.37;;;9.13;;
8640;SDS011;4358;42.100;25.222;2023-02-28T05:11:53;11.40;;;8.67;;
8640;SDS011;4358;42.100;25.222;2023-02-28T05:14:20;10.37;;;6.87;;
8640;SDS011;4358;42.100;25.222;2023-02-28T05:16:48;17.10;;;10.83;;
8640;SDS011;4358;42.100;25.222;2023-02-28T05:19:15;11.30;;;8.43;;
8640;SDS011;4358;42.100;25.222;2023-02-28T05:21:48;9.17;;;6.50;;
8640;SDS011;4358;42.100;25.222;2023-02-28T05:24:16;9.20;;;6.50;;
8640;SDS011;4358;42.100;25.222;2023-02-28T05:26:48;10.97;;;5.90;;
8640;SDS011;4358;42.100;25.222;2023-02-28T05:29:16;8.63;;;5.93;;
8640;SDS011;4358;42.100;25.222;2023-02-28T05:31:43;13.33;;;6.13;;
8640;SDS011;4358;42.100;25.222;2023-02-28T05:34:11;10.70;;;7.30;;
8640;SDS011;4358;42.100;25.222;2023-02-28T05:36:38;11.73;;;7.03;;
8640;SDS011;4358;42.100;25.222;2023-02-28T05:39:05;9.63;;;6.60;;
8640;SDS011;4358;42.100;25.222;2023-02-28T05:41:38;9.10;;;6.30;;
8640;SDS011;4358;42.100;25.222;2023-02-28T05:44:06;9.90;;;6.30;;
8640;SDS011;4358;42.100;25.222;2023-02-28T05:46:33;9.70;;;6.63;;
8640;SDS011;4358;42.100;25.222;2023-02-28T05:49:00;10.30;;;6.27;;
8640;SDS011;4358;42.100;25.222;2023-02-28T05:51:28;10.43;;;6.73;;
8640;SDS011;4358;42.100;25.222;2023-02-28T05:53:58;10.23;;;6.10;;
8640;SDS011;4358;42.100;25.222;2023-02-28T05:56:25;8.17;;;6.30;;
8640;SDS011;4358;42.100;25.222;2023-02-28T05:58:52;10.90;;;6.70;;
8640;SDS011;4358;42.100;25.222;2023-02-28T06:01:20;10.97;;;5.83;;
8640;SDS011;4358;42.100;25.222;2023-02-28T06:03:49;9.63;;;6.90;;
8640;SDS011;4358;42.100;25.222;2023-02-28T06:06:16;9.67;;;6.70;;
8640;SDS011;4358;42.100;25.222;2023-02-28T06:08:44;11.47;;;7.13;;
8640;SDS011;4358;42.100;25.222;2023-02-28T06:11:11;10.33;;;7.03;;
8640;SDS011;4358;42.100;25.222;2023-02-28T06:13:38;10.07;;;6.47;;
8640;SDS011;4358;42.100;25.222;2023-02-28T06:16:06;8.23;;;5.63;;
8640;SDS011;4358;42.100;25.222;2023-02-28T06:18:34;9.17;;;6.37;;
8640;SDS011;4358;42.100;25.222;2023-02-28T06:21:01;10.13;;;7.03;;
8640;SDS011;4358;42.100;25.222;2023-02-28T06:23:28;9.67;;;5.90;;
8640;SDS011;4358;42.100;25.222;2023-02-28T06:25:57;14.53;;;7.53;;
8640;SDS011;4358;42.100;25.222;2023-02-28T06:28:24;10.00;;;6.20;;
8640;SDS011;4358;42.100;25.222;2023-02-28T06:30:51;9.57;;;6.20;;
8640;SDS011;4358;42.100;25.222;2023-02-28T06:33:18;9.03;;;6.07;;
8640;SDS011;4358;42.100;25.222;2023-02-28T06:35:46;10.40;;;5.97;;
8640;SDS011;4358;42.100;25.222;2023-02-28T06:38:13;8.80;;;5.93;;
8640;SDS011;4358;42.100;25.222;2023-02-28T06:40:40;8.27;;;6.10;;
8640;SDS011;4358;42.100;25.222;2023-02-28T06:43:09;13.27;;;6.63;;
8640;SDS011;4358;42.100;25.222;2023-02-28T06:45:40;9.50;;;6.23;;
8640;SDS011;4358;42.100;25.222;2023-02-28T06:48:08;9.23;;;6.13;;
8640;SDS011;4358;42.100;25.222;2023-02-28T06:50:35;11.83;;;7.97;;
8640;SDS011;4358;42.100;25.222;2023-02-28T06:53:03;11.27;;;7.30;;
8640;SDS011;4358;42.100;25.222;2023-02-28T06:55:29;8.50;;;6.50;;
8640;SDS011;4358;42.100;25.222;2023-02-28T06:57:57;10.70;;;7.10;;
8640;SDS011;4358;42.100;25.222;2023-02-28T07:00:25;9.63;;;6.50;;
8640;SDS011;4358;42.100;25.222;2023-02-28T07:02:52;8.80;;;6.27;;
8640;SDS011;4358;42.100;25.222;2023-02-28T07:05:20;10.13;;;6.70;;
8640;SDS011;4358;42.100;25.222;2023-02-28T07:07:47;10.87;;;7.33;;
8640;SDS011;4358;42.100;25.222;2023-02-28T07:10:13;10.53;;;7.20;;
8640;SDS011;4358;42.100;25.222;2023-02-28T07:12:42;13.93;;;7.33;;
8640;SDS011;4358;42.100;25.222;2023-02-28T07:15:09;6.73;;;5.67;;
8640;SDS011;4358;42.100;25.222;2023-02-28T07:17:38;10.30;;;6.63;;
8640;SDS011;4358;42.100;25.222;2023-02-28T07:20:05;12.37;;;7.50;;
8640;SDS011;4358;42.100;25.222;2023-02-28T07:22:33;10.00;;;6.33;;
8640;SDS011;4358;42.100;25.222;2023-02-28T07:25:00;7.70;;;5.60;;
8640;SDS011;4358;42.100;25.222;2023-02-28T07:27:27;7.17;;;4.87;;
8640;SDS011;4358;42.100;25.222;2023-02-28T07:29:54;10.10;;;5.43;;
8640;SDS011;4358;42.100;25.222;2023-02-28T07:32:21;8.53;;;5.47;;
8640;SDS011;4358;42.100;25.222;2023-02-28T07:34:50;12.20;;;8.30;;
8640;SDS011;4358;42.100;25.222;2023-02-28T07:37:17;15.00;;;7.40;;
8640;SDS011;4358;42.100;25.222;2023-02-28T07:39:44;9.87;;;5.97;;
8640;SDS011;4358;42.100;25.222;2023-02-28T07:42:11;7.63;;;5.83;;
8640;SDS011;4358;42.100;25.222;2023-02-28T07:44:38;9.03;;;5.47;;
8640;SDS011;4358;42.100;25.222;2023-02-28T07:47:07;9.33;;;6.17;;
8640;SDS011;4358;42.100;25.222;2023-02-28T07:49:34;9.33;;;6.50;;
8640;SDS011;4358;42.100;25.222;2023-02-28T07:52:03;9.77;;;5.60;;
8640;SDS011;4358;42.100;25.222;2023-02-28T07:54:31;8.60;;;6.13;;
8640;SDS011;4358;42.100;25.222;2023-02-28T07:56:58;7.33;;;5.90;;
8640;SDS011;4358;42.100;25.222;2023-02-28T07:59:25;12.20;;;9.23;;
8640;SDS011;4358;42.100;25.222;2023-02-28T08:01:52;11.40;;;7.50;;
8640;SDS011;4358;42.100;25.222;2023-02-28T08:04:19;8.30;;;5.97;;
8640;SDS011;4358;42.100;25.222;2023-02-28T08:06:46;8.10;;;6.27;;
8640;SDS011;4358;42.100;25.222;2023-02-28T08:09:14;9.03;;;6.43;;
8640;SDS011;4358;42.100;25.222;2023-02-28T08:11:41;9.97;;;7.07;;
8640;SDS011;4358;42.100;25.222;2023-02-28T08:14:08;8.77;;;7.17;;
8640;SDS011;4358;42.100;25.222;2023-02-28T08:16:35;10.30;;;8.00;;
8640;SDS011;4358;42.100;25.222;2023-02-28T08:19:02;11.17;;;8.33;;
8640;SDS011;4358;42.100;25.222;2023-02-28T08:21:29;12.60;;;8.60;;
8640;SDS011;4358;42.100;25.222;2023-02-28T08:23:56;14.17;;;8.70;;
8640;SDS011;4358;42.100;25.222;2023-02-28T08:26:24;15.33;;;10.40;;
8640;SDS011;4358;42.100;25.222;2023-02-28T08:28:51;16.27;;;8.00;;
8640;SDS011;4358;42.100;25.222;2023-02-28T08:31:18;10.80;;;8.20;;
8640;SDS011;4358;42.100;25.222;2023-02-28T08:33:45;12.10;;;7.23;;
8640;SDS011;4358;42.100;25.222;2023-02-28T08:36:13;10.67;;;6.17;;
8640;SDS011;4358;42.100;25.222;2023-02-28T08:38:40;13.67;;;8.07;;
8640;SDS011;4358;42.100;25.222;2023-02-28T08:41:08;15.00;;;7.73;;
8640;SDS011;4358;42.100;25.222;2023-02-28T08:43:39;10.33;;;7.10;;
8640;SDS011;4358;42.100;25.222;2023-02-28T08:46:07;13.27;;;8.77;;
8640;SDS011;4358;42.100;25.222;2023-02-28T08:48:35;11.73;;;8.67;;
8640;SDS011;4358;42.100;25.222;2023-02-28T08:51:04;10.10;;;7.17;;
8640;SDS011;4358;42.100;25.222;2023-02-28T08:53:34;11.60;;;8.20;;
8640;SDS011;4358;42.100;25.222;2023-02-28T08:56:04;12.53;;;8.40;;
8640;SDS011;4358;42.100;25.222;2023-02-28T08:58:33;11.27;;;8.57;;
8640;SDS011;4358;42.100;25.222;2023-02-28T09:01:06;11.17;;;8.47;;
8640;SDS011;4358;42.100;25.222;2023-02-28T09:03:34;17.10;;;8.40;;
8640;SDS011;4358;42.100;25.222;2023-02-28T09:06:02;12.17;;;8.67;;
8640;SDS011;4358;42.100;25.222;2023-02-28T09:08:30;12.10;;;9.20;;
8640;SDS011;4358;42.100;25.222;2023-02-28T09:10:57;13.93;;;8.97;;
8640;SDS011;4358;42.100;25.222;2023-02-28T09:13:25;12.17;;;8.30;;
8640;SDS011;4358;42.100;25.222;2023-02-28T09:15:52;11.43;;;7.97;;
8640;SDS011;4358;42.100;25.222;2023-02-28T09:18:21;14.53;;;7.57;;
8640;SDS011;4358;42.100;25.222;2023-02-28T09:20:48;8.30;;;6.73;;
8640;SDS011;4358;42.100;25.222;2023-02-28T09:23:15;13.70;;;9.13;;
8640;SDS011;4358;42.100;25.222;2023-02-28T09:25:46;9.77;;;6.77;;
8640;SDS011;4358;42.100;25.222;2023-02-28T09:28:14;10.60;;;7.77;;
8640;SDS011;4358;42.100;25.222;2023-02-28T09:30:42;13.17;;;8.17;;
8640;SDS011;4358;42.100;25.222;2023-02-28T09:33:11;9.80;;;7.83;;
8640;SDS011;4358;42.100;25.222;2023-02-28T09:35:40;11.30;;;7.90;;
8640;SDS011;4358;42.100;25.222;2023-02-28T09:38:08;10.90;;;7.53;;
8640;SDS011;4358;42.100;25.222;2023-02-28T09:40:36;12.93;;;7.77;;
8640;SDS011;4358;42.100;25.222;2023-02-28T09:43:09;12.17;;;8.60;;
8640;SDS011;4358;42.100;25.222;2023-02-28T09:45:41;11.47;;;7.73;;
8640;SDS011;4358;42.100;25.222;2023-02-28T09:48:14;11.83;;;8.63;;
8640;SDS011;4358;42.100;25.222;2023-02-28T09:50:46;11.73;;;8.23;;
8640;SDS011;4358;42.100;25.222;2023-02-28T09:53:18;14.33;;;8.00;;
8640;SDS011;4358;42.100;25.222;2023-02-28T09:55:48;12.27;;;8.47;;
8640;SDS011;4358;42.100;25.222;2023-02-28T09:58:19;13.80;;;7.73;;
8640;SDS011;4358;42.100;25.222;2023-02-28T10:00:53;11.90;;;7.43;;
8640;SDS011;4358;42.100;25.222;2023-02-28T10:03:29;13.17;;;8.23;;
8640;SDS011;4358;42.100;25.222;2023-02-28T10:06:04;10.70;;;6.77;;
8640;SDS011;4358;42.100;25.222;2023-02-28T10:08:39;10.23;;;7.87;;
8640;SDS011;4358;42.100;25.222;2023-02-28T10:11:12;9.30;;;6.83;;
8640;SDS011;4358;42.100;25.222;2023-02-28T10:13:46;14.07;;;6.37;;
8640;SDS011;4358;42.100;25.222;2023-02-28T10:16:25;7.70;;;6.83;;
8640;SDS011;4358;42.100;25.222;2023-02-28T10:18:57;10.30;;;7.00;;
8640;SDS011;4358;42.100;25.222;2023-02-28T10:21:31;14.90;;;7.83;;
8640;SDS011;4358;42.100;25.222;2023-02-28T10:24:03;9.60;;;7.33;;
8640;SDS011;4358;42.100;25.222;2023-02-28T10:26:38;11.60;;;7.73;;
8640;SDS011;4358;42.100;25.222;2023-02-28T10:29:07;10.03;;;6.87;;
8640;SDS011;4358;42.100;25.222;2023-02-28T10:31:34;11.57;;;6.20;;
8640;SDS011;4358;42.100;25.222;2023-02-28T10:34:01;9.07;;;6.80;;
8640;SDS011;4358;42.100;25.222;2023-02-28T10:36:30;10.80;;;6.00;;
8640;SDS011;4358;42.100;25.222;2023-02-28T10:38:57;9.30;;;6.63;;
8640;SDS011;4358;42.100;25.222;2023-02-28T10:41:28;10.93;;;7.50;;
8640;SDS011;4358;42.100;25.222;2023-02-28T10:44:13;7.87;;;6.20;;
8640;SDS011;4358;42.100;25.222;2023-02-28T10:46:44;12.77;;;7.47;;
8640;SDS011;4358;42.100;25.222;2023-02-28T10:49:15;15.00;;;8.20;;
8640;SDS011;4358;42.100;25.222;2023-02-28T10:51:47;9.77;;;6.37;;
8640;SDS011;4358;42.100;25.222;2023-02-28T10:54:22;9.77;;;6.63;;
8640;SDS011;4358;42.100;25.222;2023-02-28T10:57:05;11.23;;;7.00;;
8640;SDS011;4358;42.100;25.222;2023-02-28T10:59:34;12.47;;;8.50;;
8640;SDS011;4358;42.100;25.222;2023-02-28T11:02:01;10.17;;;6.67;;
8640;SDS011;4358;42.100;25.222;2023-02-28T11:04:32;9.00;;;6.77;;
8640;SDS011;4358;42.100;25.222;2023-02-28T11:07:05;11.57;;;7.07;;
8640;SDS011;4358;42.100;25.222;2023-02-28T11:09:44;11.10;;;7.57;;
8640;SDS011;4358;42.100;25.222;2023-02-28T11:12:19;8.80;;;7.27;;
8640;SDS011;4358;42.100;25.222;2023-02-28T11:14:49;11.67;;;7.43;;
8640;SDS011;4358;42.100;25.222;2023-02-28T11:17:19;10.17;;;6.83;;
8640;SDS011;4358;42.100;25.222;2023-02-28T11:19:49;20.53;;;7.43;;
8640;SDS011;4358;42.100;25.222;2023-02-28T11:22:21;8.57;;;5.97;;
8640;SDS011;4358;42.100;25.222;2023-02-28T11:24:54;8.27;;;5.90;;
8640;SDS011;4358;42.100;25.222;2023-02-28T11:27:40;7.80;;;5.73;;
8640;SDS011;4358;42.100;25.222;2023-02-28T11:30:22;7.13;;;5.87;;
8640;SDS011;4358;42.100;25.222;2023-02-28T11:32:54;8.80;;;5.70;;
8640;SDS011;4358;42.100;25.222;2023-02-28T11:35:22;7.47;;;5.77;;
8640;SDS011;4358;42.100;25.222;2023-02-28T11:37:54;6.57;;;4.93;;
8640;SDS011;4358;42.100;25.222;2023-02-28T11:40:22;7.20;;;5.20;;
8640;SDS011;4358;42.100;25.222;2023-02-28T11:42:57;8.90;;;5.73;;
8640;SDS011;4358;42.100;25.222;2023-02-28T11:48:25;7.03;;;5.50;;
8640;SDS011;4358;42.100;25.222;2023-02-28T11:51:00;7.27;;;5.57;;
8640;SDS011;4358;42.100;25.222;2023-02-28T11:53:43;9.27;;;6.00;;
8640;SDS011;4358;42.100;25.222;2023-02-28T11:56:23;9.27;;;7.17;;
8640;SDS011;4358;42.100;25.222;2023-02-28T11:59:00;10.00;;;7.13;;
8640;SDS011;4358;42.100;25.222;2023-02-28T12:01:43;5.97;;;5.13;;
8640;SDS011;4358;42.100;25.222;2023-02-28T12:04:25;7.27;;;6.10;;
8640;SDS011;4358;42.100;25.222;2023-02-28T12:07:02;8.60;;;6.97;;
8640;SDS011;4358;42.100;25.222;2023-02-28T12:09:42;7.93;;;6.60;;
8640;SDS011;4358;42.100;25.222;2023-02-28T12:12:21;8.40;;;6.27;;
8640;SDS011;4358;42.100;25.222;2023-02-28T12:15:02;8.30;;;5.90;;
8640;SDS011;4358;42.100;25.222;2023-02-28T12:17:46;8.33;;;5.83;;
8640;SDS011;4358;42.100;25.222;2023-02-28T12:20:26;9.17;;;5.37;;
8640;SDS011;4358;42.100;25.222;2023-02-28T12:23:15;7.67;;;5.67;;
8640;SDS011;4358;42.100;25.222;2023-02-28T12:26:00;10.73;;;6.13;;
8640;SDS011;4358;42.100;25.222;2023-02-28T12:28:36;7.23;;;5.13;;
8640;SDS011;4358;42.100;25.222;2023-02-28T12:31:09;7.17;;;5.80;;
8640;SDS011;4358;42.100;25.222;2023-02-28T12:33:41;8.13;;;5.23;;
8640;SDS011;4358;42.100;25.222;2023-02-28T12:36:13;7.30;;;5.60;;
8640;SDS011;4358;42.100;25.222;2023-02-28T12:38:44;8.97;;;6.30;;
8640;SDS011;4358;42.100;25.222;2023-02-28T12:41:17;8.07;;;6.60;;
8640;SDS011;4358;42.100;25.222;2023-02-28T12:43:50;8.47;;;6.07;;
8640;SDS011;4358;42.100;25.222;2023-02-28T12:46:24;8.80;;;6.00;;
8640;SDS011;4358;42.100;25.222;2023-02-28T12:48:55;8.00;;;5.90;;
8640;SDS011;4358;42.100;25.222;2023-02-28T12:51:25;8.60;;;6.30;;
8640;SDS011;4358;42.100;25.222;2023-02-28T12:53:55;11.07;;;6.50;;
8640;SDS011;4358;42.100;25.222;2023-02-28T12:56:33;8.43;;;6.70;;
8640;SDS011;4358;42.100;25.222;2023-02-28T12:59:07;7.97;;;6.03;;
8640;SDS011;4358;42.100;25.222;2023-02-28T13:01:42;9.80;;;6.43;;
8640;SDS011;4358;42.100;25.222;2023-02-28T13:04:42;8.17;;;6.53;;
8640;SDS011;4358;42.100;25.222;2023-02-28T13:07:30;9.47;;;6.70;;
8640;SDS011;4358;42.100;25.222;2023-02-28T13:10:07;11.53;;;7.13;;
8640;SDS011;4358;42.100;25.222;2023-02-28T13:12:36;9.63;;;6.83;;
8640;SDS011;4358;42.100;25.222;2023-02-28T13:15:16;10.37;;;7.83;;
8640;SDS011;4358;42.100;25.222;2023-02-28T13:17:48;9.27;;;7.60;;
8640;SDS011;4358;42.100;25.222;2023-02-28T13:20:17;12.03;;;8.23;;
8640;SDS011;4358;42.100;25.222;2023-02-28T13:22:47;9.83;;;7.50;;
8640;SDS011;4358;42.100;25.222;2023-02-28T13:34:39;9.50;;;7.43;;
8640;SDS011;4358;42.100;25.222;2023-02-28T13:40:07;11.30;;;8.53;;
8640;SDS011;4358;42.100;25.222;2023-02-28T13:42:54;12.30;;;8.50;;
8640;SDS011;4358;42.100;25.222;2023-02-28T13:45:23;11.90;;;8.50;;
8640;SDS011;4358;42.100;25.222;2023-02-28T13:47:52;12.40;;;8.87;;
8640;SDS011;4358;42.100;25.222;2023-02-28T13:50:24;12.77;;;8.57;;
8640;SDS011;4358;42.100;25.222;2023-02-28T13:52:59;13.80;;;9.07;;
8640;SDS011;4358;42.100;25.222;2023-02-28T13:55:49;10.97;;;8.20;;
8640;SDS011;4358;42.100;25.222;2023-02-28T13:58:25;11.87;;;8.00;;
8640;SDS011;4358;42.100;25.222;2023-02-28T14:01:06;9.53;;;8.13;;
8640;SDS011;4358;42.100;25.222;2023-02-28T14:03:44;15.37;;;9.23;;
8640;SDS011;4358;42.100;25.222;2023-02-28T14:06:26;13.77;;;9.73;;
8640;SDS011;4358;42.100;25.222;2023-02-28T14:08:58;10.73;;;8.20;;
8640;SDS011;4358;42.100;25.222;2023-02-28T14:11:29;11.83;;;7.43;;
8640;SDS011;4358;42.100;25.222;2023-02-28T14:13:58;10.27;;;8.33;;
8640;SDS011;4358;42.100;25.222;2023-02-28T14:16:26;10.40;;;7.40;;
8640;SDS011;4358;42.100;25.222;2023-02-28T14:18:56;10.90;;;8.03;;
8640;SDS011;4358;42.100;25.222;2023-02-28T14:21:27;10.23;;;7.70;;
8640;SDS011;4358;42.100;25.222;2023-02-28T14:27:12;10.20;;;7.53;;
8640;SDS011;4358;42.100;25.222;2023-02-28T14:33:11;12.73;;;8.60;;
8640;SDS011;4358;42.100;25.222;2023-02-28T14:35:55;16.87;;;9.40;;
8640;SDS011;4358;42.100;25.222;2023-02-28T14:38:32;12.37;;;8.70;;
8640;SDS011;4358;42.100;25.222;2023-02-28T14:41:04;14.13;;;8.90;;
8640;SDS011;4358;42.100;25.222;2023-02-28T14:43:47;13.13;;;9.63;;
8640;SDS011;4358;42.100;25.222;2023-02-28T14:46:16;13.73;;;9.53;;
8640;SDS011;4358;42.100;25.222;2023-02-28T14:48:44;16.63;;;10.57;;
8640;SDS011;4358;42.100;25.222;2023-02-28T14:51:12;14.53;;;9.90;;
8640;SDS011;4358;42.100;25.222;2023-02-28T14:53:49;14.83;;;9.90;;
8640;SDS011;4358;42.100;25.222;2023-02-28T14:56:22;14.27;;;10.00;;
8640;SDS011;4358;42.100;25.222;2023-02-28T14:58:51;16.20;;;10.47;;
8640;SDS011;4358;42.100;25.222;2023-02-28T15:01:19;17.00;;;10.70;;
8640;SDS011;4358;42.100;25.222;2023-02-28T15:03:47;14.20;;;9.77;;
8640;SDS011;4358;42.100;25.222;2023-02-28T15:06:14;19.87;;;10.87;;
8640;SDS011;4358;42.100;25.222;2023-02-28T15:08:43;17.57;;;11.37;;
8640;SDS011;4358;42.100;25.222;2023-02-28T15:11:13;16.80;;;11.23;;
8640;SDS011;4358;42.100;25.222;2023-02-28T15:13:45;18.30;;;10.73;;
8640;SDS011;4358;42.100;25.222;2023-02-28T15:16:15;14.57;;;9.90;;
8640;SDS011;4358;42.100;25.222;2023-02-28T15:18:46;15.97;;;9.83;;
8640;SDS011;4358;42.100;25.222;2023-02-28T15:21:17;18.60;;;13.03;;
8640;SDS011;4358;42.100;25.222;2023-02-28T15:23:48;12.63;;;9.03;;
8640;SDS011;4358;42.100;25.222;2023-02-28T15:26:22;12.70;;;9.43;;
8640;SDS011;4358;42.100;25.222;2023-02-28T15:28:56;12.17;;;8.27;;
8640;SDS011;4358;42.100;25.222;2023-02-28T15:31:26;15.60;;;10.07;;
8640;SDS011;4358;42.100;25.222;2023-02-28T15:33:55;16.57;;;9.77;;
8640;SDS011;4358;42.100;25.222;2023-02-28T15:36:24;17.07;;;10.10;;
8640;SDS011;4358;42.100;25.222;2023-02-28T15:38:53;15.07;;;8.37;;
8640;SDS011;4358;42.100;25.222;2023-02-28T15:41:23;18.00;;;11.20;;
8640;SDS011;4358;42.100;25.222;2023-02-28T15:46:45;13.87;;;7.97;;
8640;SDS011;4358;42.100;25.222;2023-02-28T15:49:21;12.40;;;8.47;;
8640;SDS011;4358;42.100;25.222;2023-02-28T15:51:49;11.10;;;7.53;;